Terminal Aerodrome Forecast
Issued by NWS

Home | Current Version | Previous Version | Text Only | Print | Product List | Glossary On
Versions: 1 2 3 4 5 6 7 8 9 10 11 12
000
FTUS42 KTBW 050537
TAFLAL
TAF
KLAL 050537Z 0506/0606 07008KT P6SM SCT025 BKN050
     FM050800 05006KT P6SM SCT050 SCT250
     FM051400 07010G16KT P6SM FEW030 SCT050 BKN250
     FM051600 08013G20KT P6SM SCT030 BKN050
     FM052000 09014G22KT P6SM VCSH SCT030 BKN050
     FM060000 07007KT P6SM SCT050 BKN250
      AMD NOT SKED TIL 051200=

USA.gov is the U.S. government's official web portal to all federal, state and local government web resources and services.